sensor_id;sensor_type;location;lat;lon;timestamp;pressure;altitude;pressure_sealevel;temperature;humidity
63512;BME280;49666;52.030;8.884;2023-12-22T00:01:29;98297.28;;;5.30;84.68
63512;BME280;49666;52.030;8.884;2023-12-22T00:03:54;98296.13;;;5.31;85.53
63512;BME280;49666;52.030;8.884;2023-12-22T00:06:20;98291.38;;;5.28;85.33
63512;BME280;49666;52.030;8.884;2023-12-22T00:08:45;98295.88;;;5.24;84.81
63512;BME280;49666;52.030;8.884;2023-12-22T00:11:10;98288.06;;;5.23;83.98
63512;BME280;49666;52.030;8.884;2023-12-22T00:13:35;98278.91;;;5.27;84.24
63512;BME280;49666;52.030;8.884;2023-12-22T00:16:01;98280.63;;;5.32;84.97
63512;BME280;49666;52.030;8.884;2023-12-22T00:18:27;98281.53;;;5.36;85.01
63512;BME280;49666;52.030;8.884;2023-12-22T00:20:52;98272.00;;;5.42;85.15
63512;BME280;49666;52.030;8.884;2023-12-22T00:23:18;98280.28;;;5.46;84.49
63512;BME280;49666;52.030;8.884;2023-12-22T00:25:43;98271.91;;;5.51;85.13
63512;BME280;49666;52.030;8.884;2023-12-22T00:28:08;98261.94;;;5.55;85.61
63512;BME280;49666;52.030;8.884;2023-12-22T00:30:34;98260.13;;;5.59;85.36
63512;BME280;49666;52.030;8.884;2023-12-22T00:32:59;98262.19;;;5.62;84.34
63512;BME280;49666;52.030;8.884;2023-12-22T00:35:24;98275.56;;;5.67;85.39
63512;BME280;49666;52.030;8.884;2023-12-22T00:37:49;98276.81;;;5.70;84.96
63512;BME280;49666;52.030;8.884;2023-12-22T00:40:15;98296.69;;;5.70;84.50
63512;BME280;49666;52.030;8.884;2023-12-22T00:42:40;98308.56;;;5.66;84.48
63512;BME280;49666;52.030;8.884;2023-12-22T00:45:06;98307.75;;;5.53;83.88
63512;BME280;49666;52.030;8.884;2023-12-22T00:47:31;98338.03;;;5.39;83.91
63512;BME280;49666;52.030;8.884;2023-12-22T00:50:00;98315.59;;;5.21;82.06
63512;BME280;49666;52.030;8.884;2023-12-22T00:52:25;98336.41;;;5.05;82.94
63512;BME280;49666;52.030;8.884;2023-12-22T00:54:51;98355.00;;;4.81;83.22
63512;BME280;49666;52.030;8.884;2023-12-22T00:57:16;98342.06;;;4.57;83.37
63512;BME280;49666;52.030;8.884;2023-12-22T00:59:42;98346.34;;;4.37;84.22
63512;BME280;49666;52.030;8.884;2023-12-22T01:02:13;98376.00;;;4.21;84.28
63512;BME280;49666;52.030;8.884;2023-12-22T01:04:38;98362.28;;;4.09;84.97
63512;BME280;49666;52.030;8.884;2023-12-22T01:07:03;98354.19;;;4.00;85.10
63512;BME280;49666;52.030;8.884;2023-12-22T01:09:29;98360.09;;;3.93;85.38
63512;BME280;49666;52.030;8.884;2023-12-22T01:11:54;98354.88;;;3.88;85.65
63512;BME280;49666;52.030;8.884;2023-12-22T01:14:19;98370.22;;;3.84;85.98
63512;BME280;49666;52.030;8.884;2023-12-22T01:16:45;98368.16;;;3.81;85.87
63512;BME280;49666;52.030;8.884;2023-12-22T01:19:10;98373.59;;;3.81;86.29
63512;BME280;49666;52.030;8.884;2023-12-22T01:21:35;98382.19;;;3.83;86.46
63512;BME280;49666;52.030;8.884;2023-12-22T01:24:01;98391.44;;;3.82;86.59
63512;BME280;49666;52.030;8.884;2023-12-22T01:26:27;98386.56;;;3.67;85.84
63512;BME280;49666;52.030;8.884;2023-12-22T01:28:52;98383.06;;;3.57;85.16
63512;BME280;49666;52.030;8.884;2023-12-22T01:31:18;98367.75;;;3.53;85.47
63512;BME280;49666;52.030;8.884;2023-12-22T01:33:44;98402.84;;;3.49;85.97
63512;BME280;49666;52.030;8.884;2023-12-22T01:36:09;98393.78;;;3.45;86.00
63512;BME280;49666;52.030;8.884;2023-12-22T01:38:35;98409.56;;;3.43;86.40
63512;BME280;49666;52.030;8.884;2023-12-22T01:41:00;98388.19;;;3.41;86.49
63512;BME280;49666;52.030;8.884;2023-12-22T01:43:25;98387.56;;;3.36;86.74
63512;BME280;49666;52.030;8.884;2023-12-22T01:45:55;98386.78;;;3.35;87.17
63512;BME280;49666;52.030;8.884;2023-12-22T01:48:22;98405.59;;;3.32;86.73
63512;BME280;49666;52.030;8.884;2023-12-22T01:50:50;98401.63;;;3.29;86.73
63512;BME280;49666;52.030;8.884;2023-12-22T01:53:18;98338.41;;;3.28;87.00
63512;BME280;49666;52.030;8.884;2023-12-22T01:55:45;98368.91;;;3.25;87.11
63512;BME280;49666;52.030;8.884;2023-12-22T01:58:11;98392.69;;;3.20;87.26
63512;BME280;49666;52.030;8.884;2023-12-22T02:00:36;98404.19;;;3.08;86.60
63512;BME280;49666;52.030;8.884;2023-12-22T02:03:02;98410.25;;;2.96;86.33
63512;BME280;49666;52.030;8.884;2023-12-22T02:05:28;98417.53;;;2.87;85.87
63512;BME280;49666;52.030;8.884;2023-12-22T02:07:54;98425.84;;;2.82;85.97
63512;BME280;49666;52.030;8.884;2023-12-22T02:10:20;98436.97;;;2.80;85.98
63512;BME280;49666;52.030;8.884;2023-12-22T02:12:45;98429.34;;;2.82;86.38
63512;BME280;49666;52.030;8.884;2023-12-22T02:15:11;98423.75;;;2.87;86.86
63512;BME280;49666;52.030;8.884;2023-12-22T02:17:52;98415.34;;;2.89;86.79
63512;BME280;49666;52.030;8.884;2023-12-22T02:20:21;98418.19;;;2.84;86.78
63512;BME280;49666;52.030;8.884;2023-12-22T02:22:51;98409.72;;;2.85;86.64
63512;BME280;49666;52.030;8.884;2023-12-22T02:25:16;98398.56;;;2.87;86.76
63512;BME280;49666;52.030;8.884;2023-12-22T02:27:50;98400.00;;;2.93;86.88
63512;BME280;49666;52.030;8.884;2023-12-22T02:30:36;98400.03;;;3.02;87.08
63512;BME280;49666;52.030;8.884;2023-12-22T02:33:07;98411.03;;;3.05;87.24
63512;BME280;49666;52.030;8.884;2023-12-22T02:35:36;98424.91;;;3.12;87.57
63512;BME280;49666;52.030;8.884;2023-12-22T02:38:04;98442.28;;;3.20;87.05
63512;BME280;49666;52.030;8.884;2023-12-22T02:40:31;98448.03;;;3.27;86.94
63512;BME280;49666;52.030;8.884;2023-12-22T02:42:56;98431.75;;;3.27;86.71
63512;BME280;49666;52.030;8.884;2023-12-22T02:45:22;98424.75;;;3.26;86.98
63512;BME280;49666;52.030;8.884;2023-12-22T02:47:47;98395.25;;;3.25;86.74
63512;BME280;49666;52.030;8.884;2023-12-22T02:50:14;98428.13;;;3.23;86.04
63512;BME280;49666;52.030;8.884;2023-12-22T02:52:40;98437.03;;;3.24;86.67
63512;BME280;49666;52.030;8.884;2023-12-22T02:55:06;98439.91;;;3.27;86.96
63512;BME280;49666;52.030;8.884;2023-12-22T02:57:32;98443.09;;;3.29;87.00
63512;BME280;49666;52.030;8.884;2023-12-22T02:59:57;98442.00;;;3.31;87.20
63512;BME280;49666;52.030;8.884;2023-12-22T03:02:23;98424.44;;;3.28;87.41
63512;BME280;49666;52.030;8.884;2023-12-22T03:04:48;98423.81;;;3.22;87.30
63512;BME280;49666;52.030;8.884;2023-12-22T03:07:14;98416.44;;;3.14;86.92
63512;BME280;49666;52.030;8.884;2023-12-22T03:09:40;98411.34;;;3.04;86.41
63512;BME280;49666;52.030;8.884;2023-12-22T03:12:07;98415.47;;;2.92;86.00
63512;BME280;49666;52.030;8.884;2023-12-22T03:14:33;98428.25;;;2.83;85.64
63512;BME280;49666;52.030;8.884;2023-12-22T03:17:07;98423.28;;;2.76;85.38
63512;BME280;49666;52.030;8.884;2023-12-22T03:19:33;98417.06;;;2.67;85.56
63512;BME280;49666;52.030;8.884;2023-12-22T03:21:59;98409.38;;;2.60;85.37
63512;BME280;49666;52.030;8.884;2023-12-22T03:24:26;98403.63;;;2.53;85.17
63512;BME280;49666;52.030;8.884;2023-12-22T03:26:52;98394.34;;;2.46;84.96
63512;BME280;49666;52.030;8.884;2023-12-22T03:29:18;98384.78;;;2.39;84.95
63512;BME280;49666;52.030;8.884;2023-12-22T03:31:44;98387.63;;;2.34;84.92
63512;BME280;49666;52.030;8.884;2023-12-22T03:34:10;98391.78;;;2.32;85.16
63512;BME280;49666;52.030;8.884;2023-12-22T03:36:35;98394.94;;;2.34;85.27
63512;BME280;49666;52.030;8.884;2023-12-22T03:39:00;98386.19;;;2.37;85.72
63512;BME280;49666;52.030;8.884;2023-12-22T03:41:26;98387.97;;;2.41;86.00
63512;BME280;49666;52.030;8.884;2023-12-22T03:43:52;98383.22;;;2.47;85.97
63512;BME280;49666;52.030;8.884;2023-12-22T03:46:17;98395.66;;;2.57;86.37
63512;BME280;49666;52.030;8.884;2023-12-22T03:48:43;98378.63;;;2.65;86.75
63512;BME280;49666;52.030;8.884;2023-12-22T03:51:08;98394.56;;;2.75;86.45
63512;BME280;49666;52.030;8.884;2023-12-22T03:53:35;98380.38;;;2.87;86.71
63512;BME280;49666;52.030;8.884;2023-12-22T03:56:01;98372.59;;;2.94;86.91
63512;BME280;49666;52.030;8.884;2023-12-22T03:58:26;98379.13;;;3.02;86.81
63512;BME280;49666;52.030;8.884;2023-12-22T04:00:51;98380.22;;;3.10;86.96
63512;BME280;49666;52.030;8.884;2023-12-22T04:03:17;98385.50;;;3.15;86.68
63512;BME280;49666;52.030;8.884;2023-12-22T04:05:42;98384.88;;;3.18;86.17
63512;BME280;49666;52.030;8.884;2023-12-22T04:08:07;98390.13;;;3.23;86.10
63512;BME280;49666;52.030;8.884;2023-12-22T04:10:32;98393.94;;;3.31;86.22
63512;BME280;49666;52.030;8.884;2023-12-22T04:12:58;98380.84;;;3.42;86.29
63512;BME280;49666;52.030;8.884;2023-12-22T04:15:23;98378.13;;;3.51;86.23
63512;BME280;49666;52.030;8.884;2023-12-22T04:17:49;98387.84;;;3.60;86.51
63512;BME280;49666;52.030;8.884;2023-12-22T04:20:15;98394.84;;;3.70;85.98
63512;BME280;49666;52.030;8.884;2023-12-22T04:22:40;98407.28;;;3.80;86.49
63512;BME280;49666;52.030;8.884;2023-12-22T04:25:06;98410.94;;;3.84;86.98
63512;BME280;49666;52.030;8.884;2023-12-22T04:27:31;98414.13;;;3.86;86.85
63512;BME280;49666;52.030;8.884;2023-12-22T04:29:56;98415.72;;;3.87;86.83
63512;BME280;49666;52.030;8.884;2023-12-22T04:32:22;98419.56;;;3.86;86.38
63512;BME280;49666;52.030;8.884;2023-12-22T04:34:47;98397.03;;;3.86;86.19
63512;BME280;49666;52.030;8.884;2023-12-22T04:37:12;98391.63;;;3.86;86.59
63512;BME280;49666;52.030;8.884;2023-12-22T04:39:38;98419.22;;;3.88;87.12
63512;BME280;49666;52.030;8.884;2023-12-22T04:42:03;98393.22;;;3.87;87.18
63512;BME280;49666;52.030;8.884;2023-12-22T04:44:28;98392.06;;;3.88;86.95
63512;BME280;49666;52.030;8.884;2023-12-22T04:46:54;98401.03;;;3.88;87.46
63512;BME280;49666;52.030;8.884;2023-12-22T04:49:19;98392.88;;;3.88;87.51
63512;BME280;49666;52.030;8.884;2023-12-22T04:51:44;98390.63;;;3.90;87.47
63512;BME280;49666;52.030;8.884;2023-12-22T04:54:10;98381.84;;;3.93;87.56
63512;BME280;49666;52.030;8.884;2023-12-22T04:56:35;98386.63;;;3.96;87.61
63512;BME280;49666;52.030;8.884;2023-12-22T04:59:00;98390.59;;;3.99;87.45
63512;BME280;49666;52.030;8.884;2023-12-22T05:01:26;98396.97;;;4.03;87.20
63512;BME280;49666;52.030;8.884;2023-12-22T05:03:51;98386.59;;;4.05;86.76
63512;BME280;49666;52.030;8.884;2023-12-22T05:06:19;98396.50;;;4.10;87.12
63512;BME280;49666;52.030;8.884;2023-12-22T05:08:44;98392.16;;;4.09;87.15
63512;BME280;49666;52.030;8.884;2023-12-22T05:11:09;98381.63;;;4.07;87.00
63512;BME280;49666;52.030;8.884;2023-12-22T05:13:34;98379.41;;;4.01;85.90
63512;BME280;49666;52.030;8.884;2023-12-22T05:16:00;98393.66;;;3.97;86.24
63512;BME280;49666;52.030;8.884;2023-12-22T05:18:25;98386.63;;;3.96;85.81
63512;BME280;49666;52.030;8.884;2023-12-22T05:20:51;98405.16;;;3.94;86.04
63512;BME280;49666;52.030;8.884;2023-12-22T05:23:17;98399.28;;;3.92;86.14
63512;BME280;49666;52.030;8.884;2023-12-22T05:25:43;98402.63;;;3.89;85.88
63512;BME280;49666;52.030;8.884;2023-12-22T05:28:08;98398.31;;;3.88;85.84
63512;BME280;49666;52.030;8.884;2023-12-22T05:30:34;98405.81;;;3.91;85.98
63512;BME280;49666;52.030;8.884;2023-12-22T05:32:59;98398.63;;;3.95;86.22
63512;BME280;49666;52.030;8.884;2023-12-22T05:35:24;98400.03;;;4.02;86.71
63512;BME280;49666;52.030;8.884;2023-12-22T05:37:49;98397.94;;;4.07;86.72
63512;BME280;49666;52.030;8.884;2023-12-22T05:40:15;98400.47;;;4.12;86.80
63512;BME280;49666;52.030;8.884;2023-12-22T05:42:41;98414.97;;;4.16;86.52
63512;BME280;49666;52.030;8.884;2023-12-22T05:45:07;98419.91;;;4.23;86.46
63512;BME280;49666;52.030;8.884;2023-12-22T05:47:32;98429.69;;;4.24;86.46
63512;BME280;49666;52.030;8.884;2023-12-22T05:49:58;98419.13;;;4.23;86.22
63512;BME280;49666;52.030;8.884;2023-12-22T05:52:23;98424.59;;;4.14;86.18
63512;BME280;49666;52.030;8.884;2023-12-22T05:54:49;98425.09;;;4.07;86.18
63512;BME280;49666;52.030;8.884;2023-12-22T05:57:14;98429.91;;;4.02;86.02
63512;BME280;49666;52.030;8.884;2023-12-22T05:59:39;98445.44;;;3.92;86.11
63512;BME280;49666;52.030;8.884;2023-12-22T06:02:04;98436.34;;;3.88;86.22
63512;BME280;49666;52.030;8.884;2023-12-22T06:04:30;98438.09;;;3.84;86.33
63512;BME280;49666;52.030;8.884;2023-12-22T06:06:55;98416.72;;;3.83;86.46
63512;BME280;49666;52.030;8.884;2023-12-22T06:09:21;98419.25;;;3.79;86.42
63512;BME280;49666;52.030;8.884;2023-12-22T06:11:48;98424.69;;;3.79;86.72
63512;BME280;49666;52.030;8.884;2023-12-22T06:14:14;98424.34;;;3.80;86.87
63512;BME280;49666;52.030;8.884;2023-12-22T06:16:39;98422.13;;;3.83;87.03
63512;BME280;49666;52.030;8.884;2023-12-22T06:19:05;98412.88;;;3.84;86.88
63512;BME280;49666;52.030;8.884;2023-12-22T06:21:30;98448.97;;;3.84;87.18
63512;BME280;49666;52.030;8.884;2023-12-22T06:23:56;98458.38;;;3.87;86.82
63512;BME280;49666;52.030;8.884;2023-12-22T06:26:21;98463.16;;;3.90;86.73
63512;BME280;49666;52.030;8.884;2023-12-22T06:28:47;98482.00;;;3.95;86.73
63512;BME280;49666;52.030;8.884;2023-12-22T06:31:19;98477.19;;;4.01;86.80
63512;BME280;49666;52.030;8.884;2023-12-22T06:33:49;98479.75;;;4.06;86.70
63512;BME280;49666;52.030;8.884;2023-12-22T06:36:22;98489.63;;;4.10;87.02
63512;BME280;49666;52.030;8.884;2023-12-22T06:38:49;98504.50;;;4.13;86.91
63512;BME280;49666;52.030;8.884;2023-12-22T06:43:46;98507.34;;;4.16;86.92
63512;BME280;49666;52.030;8.884;2023-12-22T06:46:20;98496.19;;;4.18;86.82
63512;BME280;49666;52.030;8.884;2023-12-22T06:48:47;98519.50;;;4.19;86.74
63512;BME280;49666;52.030;8.884;2023-12-22T06:51:20;98525.09;;;4.23;86.76
63512;BME280;49666;52.030;8.884;2023-12-22T06:53:46;98518.84;;;4.22;86.60
63512;BME280;49666;52.030;8.884;2023-12-22T06:56:25;98523.66;;;4.25;86.14
63512;BME280;49666;52.030;8.884;2023-12-22T06:58:52;98526.84;;;4.27;86.39
63512;BME280;49666;52.030;8.884;2023-12-22T07:01:29;98541.06;;;4.33;86.48
63512;BME280;49666;52.030;8.884;2023-12-22T07:03:55;98522.81;;;4.33;86.58
63512;BME280;49666;52.030;8.884;2023-12-22T07:06:22;98546.94;;;4.35;86.17
63512;BME280;49666;52.030;8.884;2023-12-22T07:11:34;98550.94;;;4.38;86.10
63512;BME280;49666;52.030;8.884;2023-12-22T07:13:59;98551.44;;;4.40;85.97
63512;BME280;49666;52.030;8.884;2023-12-22T07:16:25;98549.50;;;4.40;85.79
63512;BME280;49666;52.030;8.884;2023-12-22T07:18:50;98537.53;;;4.41;85.95
63512;BME280;49666;52.030;8.884;2023-12-22T07:21:16;98554.63;;;4.42;85.83
63512;BME280;49666;52.030;8.884;2023-12-22T07:23:42;98558.13;;;4.42;85.93
63512;BME280;49666;52.030;8.884;2023-12-22T07:26:09;98561.97;;;4.41;85.02
63512;BME280;49666;52.030;8.884;2023-12-22T07:28:34;98563.56;;;4.42;85.55
63512;BME280;49666;52.030;8.884;2023-12-22T07:31:00;98557.00;;;4.43;85.30
63512;BME280;49666;52.030;8.884;2023-12-22T07:33:25;98570.28;;;4.45;84.91
63512;BME280;49666;52.030;8.884;2023-12-22T07:35:50;98580.50;;;4.48;85.54
63512;BME280;49666;52.030;8.884;2023-12-22T07:38:15;98567.41;;;4.50;85.20
63512;BME280;49666;52.030;8.884;2023-12-22T07:40:41;98580.34;;;4.53;85.43
63512;BME280;49666;52.030;8.884;2023-12-22T07:43:06;98568.81;;;4.56;85.59
63512;BME280;49666;52.030;8.884;2023-12-22T07:45:31;98578.56;;;4.57;85.26
63512;BME280;49666;52.030;8.884;2023-12-22T07:47:57;98578.69;;;4.61;85.54
63512;BME280;49666;52.030;8.884;2023-12-22T07:50:22;98588.94;;;4.64;85.43
63512;BME280;49666;52.030;8.884;2023-12-22T07:52:47;98592.13;;;4.66;85.52
63512;BME280;49666;52.030;8.884;2023-12-22T07:55:12;98601.56;;;4.68;85.52
63512;BME280;49666;52.030;8.884;2023-12-22T07:57:38;98596.59;;;4.71;85.18
63512;BME280;49666;52.030;8.884;2023-12-22T08:00:07;98602.97;;;4.75;85.15
63512;BME280;49666;52.030;8.884;2023-12-22T08:02:34;98606.97;;;4.77;84.96
63512;BME280;49666;52.030;8.884;2023-12-22T08:04:59;98591.94;;;4.80;85.32
63512;BME280;49666;52.030;8.884;2023-12-22T08:07:25;98598.16;;;4.80;85.42
63512;BME280;49666;52.030;8.884;2023-12-22T08:09:50;98604.41;;;4.81;85.20
63512;BME280;49666;52.030;8.884;2023-12-22T08:12:16;98606.78;;;4.82;85.47
63512;BME280;49666;52.030;8.884;2023-12-22T08:14:41;98607.28;;;4.84;85.30
63512;BME280;49666;52.030;8.884;2023-12-22T08:17:06;98596.84;;;4.86;85.54
63512;BME280;49666;52.030;8.884;2023-12-22T08:19:32;98610.94;;;4.89;85.39
63512;BME280;49666;52.030;8.884;2023-12-22T08:21:57;98620.34;;;4.91;85.16
63512;BME280;49666;52.030;8.884;2023-12-22T08:24:22;98614.28;;;4.94;85.65
63512;BME280;49666;52.030;8.884;2023-12-22T08:26:49;98617.13;;;4.98;85.54
63512;BME280;49666;52.030;8.884;2023-12-22T08:29:14;98619.22;;;5.01;85.51
63512;BME280;49666;52.030;8.884;2023-12-22T08:31:41;98619.38;;;5.05;85.68
63512;BME280;49666;52.030;8.884;2023-12-22T08:34:06;98616.78;;;5.08;85.14
63512;BME280;49666;52.030;8.884;2023-12-22T08:36:31;98613.88;;;5.13;85.62
63512;BME280;49666;52.030;8.884;2023-12-22T08:38:57;98622.66;;;5.19;85.91
63512;BME280;49666;52.030;8.884;2023-12-22T08:41:22;98622.47;;;5.24;85.28
63512;BME280;49666;52.030;8.884;2023-12-22T08:43:48;98630.13;;;5.31;86.11
63512;BME280;49666;52.030;8.884;2023-12-22T08:46:13;98629.94;;;5.36;86.14
63512;BME280;49666;52.030;8.884;2023-12-22T08:48:39;98630.88;;;5.40;85.67
63512;BME280;49666;52.030;8.884;2023-12-22T08:51:04;98640.47;;;5.46;85.93
63512;BME280;49666;52.030;8.884;2023-12-22T08:53:30;98638.34;;;5.52;85.97
63512;BME280;49666;52.030;8.884;2023-12-22T08:56:02;98645.19;;;5.58;85.94
63512;BME280;49666;52.030;8.884;2023-12-22T08:58:28;98633.31;;;5.63;86.10
63512;BME280;49666;52.030;8.884;2023-12-22T09:00:53;98632.00;;;5.69;86.17
63512;BME280;49666;52.030;8.884;2023-12-22T09:03:18;98631.00;;;5.73;85.85
63512;BME280;49666;52.030;8.884;2023-12-22T09:05:43;98638.97;;;5.79;85.99
63512;BME280;49666;52.030;8.884;2023-12-22T09:08:09;98639.13;;;5.82;86.17
63512;BME280;49666;52.030;8.884;2023-12-22T09:10:34;98642.78;;;5.86;86.42
63512;BME280;49666;52.030;8.884;2023-12-22T09:13:00;98648.34;;;5.90;86.37
63512;BME280;49666;52.030;8.884;2023-12-22T09:15:26;98650.88;;;5.95;86.47
63512;BME280;49666;52.030;8.884;2023-12-22T09:17:52;98638.56;;;5.98;86.09
63512;BME280;49666;52.030;8.884;2023-12-22T09:20:18;98619.28;;;6.03;86.30
63512;BME280;49666;52.030;8.884;2023-12-22T09:22:43;98616.03;;;6.10;86.29
63512;BME280;49666;52.030;8.884;2023-12-22T09:25:09;98616.63;;;6.15;85.98
63512;BME280;49666;52.030;8.884;2023-12-22T09:27:34;98611.75;;;6.21;86.07
63512;BME280;49666;52.030;8.884;2023-12-22T09:29:59;98627.91;;;6.26;86.05
63512;BME280;49666;52.030;8.884;2023-12-22T09:32:25;98637.00;;;6.30;85.81
63512;BME280;49666;52.030;8.884;2023-12-22T09:34:51;98632.81;;;6.33;85.85
63512;BME280;49666;52.030;8.884;2023-12-22T09:37:17;98639.19;;;6.37;86.00
63512;BME280;49666;52.030;8.884;2023-12-22T09:39:42;98645.09;;;6.39;85.59
63512;BME280;49666;52.030;8.884;2023-12-22T09:42:07;98647.97;;;6.43;86.11
63512;BME280;49666;52.030;8.884;2023-12-22T09:44:33;98639.13;;;6.46;86.25
63512;BME280;49666;52.030;8.884;2023-12-22T09:47:01;98628.31;;;6.49;86.00
63512;BME280;49666;52.030;8.884;2023-12-22T09:49:28;98626.41;;;6.50;86.11
63512;BME280;49666;52.030;8.884;2023-12-22T09:51:55;98635.84;;;6.52;85.99
63512;BME280;49666;52.030;8.884;2023-12-22T09:54:22;98642.09;;;6.53;85.63
63512;BME280;49666;52.030;8.884;2023-12-22T09:56:48;98624.28;;;6.55;85.58
63512;BME280;49666;52.030;8.884;2023-12-22T09:59:17;98621.22;;;6.57;85.76
63512;BME280;49666;52.030;8.884;2023-12-22T10:01:44;98609.16;;;6.58;85.31
63512;BME280;49666;52.030;8.884;2023-12-22T10:04:11;98609.28;;;6.62;86.10
63512;BME280;49666;52.030;8.884;2023-12-22T10:06:37;98615.19;;;6.64;85.98
63512;BME280;49666;52.030;8.884;2023-12-22T10:09:04;98619.50;;;6.65;86.01
63512;BME280;49666;52.030;8.884;2023-12-22T10:11:32;98617.25;;;6.67;86.15
63512;BME280;49666;52.030;8.884;2023-12-22T10:14:02;98605.66;;;6.70;86.05
63512;BME280;49666;52.030;8.884;2023-12-22T10:16:27;98583.50;;;6.71;86.23
63512;BME280;49666;52.030;8.884;2023-12-22T10:18:53;98579.66;;;6.72;85.92
63512;BME280;49666;52.030;8.884;2023-12-22T10:21:18;98582.81;;;6.74;86.08
63512;BME280;49666;52.030;8.884;2023-12-22T10:23:44;98583.63;;;6.75;85.91
63512;BME280;49666;52.030;8.884;2023-12-22T10:26:12;98575.44;;;6.75;85.46
63512;BME280;49666;52.030;8.884;2023-12-22T10:28:37;98580.88;;;6.75;86.03
63512;BME280;49666;52.030;8.884;2023-12-22T10:31:03;98573.50;;;6.75;86.04
63512;BME280;49666;52.030;8.884;2023-12-22T10:33:32;98565.00;;;6.77;86.04
63512;BME280;49666;52.030;8.884;2023-12-22T10:35:59;98570.44;;;6.77;85.87
63512;BME280;49666;52.030;8.884;2023-12-22T10:38:26;98553.72;;;6.79;86.21
63512;BME280;49666;52.030;8.884;2023-12-22T10:40:52;98560.44;;;6.81;85.91
63512;BME280;49666;52.030;8.884;2023-12-22T10:43:17;98555.44;;;6.83;86.15
63512;BME280;49666;52.030;8.884;2023-12-22T10:45:42;98559.44;;;6.86;86.30
63512;BME280;49666;52.030;8.884;2023-12-22T10:48:08;98551.69;;;6.88;86.52
63512;BME280;49666;52.030;8.884;2023-12-22T10:50:33;98561.91;;;6.91;86.61
63512;BME280;49666;52.030;8.884;2023-12-22T10:52:58;98560.09;;;6.95;86.61
63512;BME280;49666;52.030;8.884;2023-12-22T10:55:24;98546.94;;;6.97;86.51
63512;BME280;49666;52.030;8.884;2023-12-22T10:57:50;98551.69;;;7.00;86.17
63512;BME280;49666;52.030;8.884;2023-12-22T11:00:15;98562.28;;;7.02;86.27
63512;BME280;49666;52.030;8.884;2023-12-22T11:02:42;98569.69;;;7.01;86.02
63512;BME280;49666;52.030;8.884;2023-12-22T11:05:10;98575.13;;;7.01;86.13
63512;BME280;49666;52.030;8.884;2023-12-22T11:07:37;98556.69;;;6.98;85.73
63512;BME280;49666;52.030;8.884;2023-12-22T11:10:05;98549.31;;;6.99;85.89
63512;BME280;49666;52.030;8.884;2023-12-22T11:12:38;98548.97;;;7.00;85.79
63512;BME280;49666;52.030;8.884;2023-12-22T11:15:04;98531.00;;;6.99;86.22
63512;BME280;49666;52.030;8.884;2023-12-22T11:17:34;98538.75;;;6.97;85.89
63512;BME280;49666;52.030;8.884;2023-12-22T11:20:01;98539.19;;;6.99;86.01
63512;BME280;49666;52.030;8.884;2023-12-22T11:22:28;98533.84;;;7.03;86.37
63512;BME280;49666;52.030;8.884;2023-12-22T11:24:55;98535.91;;;7.06;86.22
63512;BME280;49666;52.030;8.884;2023-12-22T11:27:22;98546.91;;;7.09;86.64
63512;BME280;49666;52.030;8.884;2023-12-22T11:29:50;98550.56;;;7.14;86.28
63512;BME280;49666;52.030;8.884;2023-12-22T11:32:18;98536.91;;;7.14;86.15
63512;BME280;49666;52.030;8.884;2023-12-22T11:34:46;98529.97;;;7.16;86.32
63512;BME280;49666;52.030;8.884;2023-12-22T11:37:12;98530.09;;;7.20;86.30
63512;BME280;49666;52.030;8.884;2023-12-22T11:39:39;98530.53;;;7.22;86.14
63512;BME280;49666;52.030;8.884;2023-12-22T11:42:14;98533.34;;;7.25;86.25
63512;BME280;49666;52.030;8.884;2023-12-22T11:44:41;98531.44;;;7.26;86.46
63512;BME280;49666;52.030;8.884;2023-12-22T11:47:07;98522.91;;;7.27;86.40
63512;BME280;49666;52.030;8.884;2023-12-22T11:49:37;98520.63;;;7.29;86.65
63512;BME280;49666;52.030;8.884;2023-12-22T11:52:13;98521.53;;;7.34;86.34
63512;BME280;49666;52.030;8.884;2023-12-22T11:54:49;98525.50;;;7.36;86.48
63512;BME280;49666;52.030;8.884;2023-12-22T12:02:54;98527.53;;;7.39;86.27
63512;BME280;49666;52.030;8.884;2023-12-22T12:05:20;98526.41;;;7.40;86.21
63512;BME280;49666;52.030;8.884;2023-12-22T12:07:47;98533.13;;;7.43;86.46
63512;BME280;49666;52.030;8.884;2023-12-22T12:13:15;98524.03;;;7.39;86.35
63512;BME280;49666;52.030;8.884;2023-12-22T12:15:41;98520.94;;;7.40;86.34
63512;BME280;49666;52.030;8.884;2023-12-22T12:18:07;98511.28;;;7.43;86.80
63512;BME280;49666;52.030;8.884;2023-12-22T12:20:33;98501.25;;;7.47;86.64
63512;BME280;49666;52.030;8.884;2023-12-22T12:23:01;98496.25;;;7.49;86.69
63512;BME280;49666;52.030;8.884;2023-12-22T12:25:31;98495.53;;;7.52;86.73
63512;BME280;49666;52.030;8.884;2023-12-22T12:28:06;98495.31;;;7.57;86.82
63512;BME280;49666;52.030;8.884;2023-12-22T12:30:36;98493.38;;;7.58;86.77
63512;BME280;49666;52.030;8.884;2023-12-22T12:33:09;98489.50;;;7.59;86.91
63512;BME280;49666;52.030;8.884;2023-12-22T12:35:35;98499.72;;;7.62;86.89
63512;BME280;49666;52.030;8.884;2023-12-22T12:38:03;98499.72;;;7.62;86.52
63512;BME280;49666;52.030;8.884;2023-12-22T12:40:28;98491.97;;;7.64;86.56
63512;BME280;49666;52.030;8.884;2023-12-22T12:42:59;98500.50;;;7.62;86.60
63512;BME280;49666;52.030;8.884;2023-12-22T12:45:25;98488.81;;;7.62;86.18
63512;BME280;49666;52.030;8.884;2023-12-22T12:47:58;98497.44;;;7.64;86.61
63512;BME280;49666;52.030;8.884;2023-12-22T12:50:24;98492.31;;;7.62;86.39
63512;BME280;49666;52.030;8.884;2023-12-22T12:52:51;98491.53;;;7.62;86.39
63512;BME280;49666;52.030;8.884;2023-12-22T12:55:20;98496.66;;;7.63;86.41
63512;BME280;49666;52.030;8.884;2023-12-22T12:57:51;98485.72;;;7.63;86.37
63512;BME280;49666;52.030;8.884;2023-12-22T13:00:36;98494.25;;;7.62;85.59
63512;BME280;49666;52.030;8.884;2023-12-22T13:03:04;98505.88;;;7.59;86.06
63512;BME280;49666;52.030;8.884;2023-12-22T13:05:30;98496.53;;;7.60;86.44
63512;BME280;49666;52.030;8.884;2023-12-22T13:08:12;98486.41;;;7.60;86.12
63512;BME280;49666;52.030;8.884;2023-12-22T13:10:39;98490.19;;;7.56;86.06
63512;BME280;49666;52.030;8.884;2023-12-22T13:13:05;98499.53;;;7.55;85.91
63512;BME280;49666;52.030;8.884;2023-12-22T13:15:30;98476.88;;;7.54;86.24
63512;BME280;49666;52.030;8.884;2023-12-22T13:17:56;98474.47;;;7.53;86.14
63512;BME280;49666;52.030;8.884;2023-12-22T13:20:22;98470.97;;;7.52;85.99